TimeEDT,TemperatureF,Dew PointF,Humidity,Sea Level PressureIn,VisibilityMPH,Wind Direction,Wind SpeedMPH,Gust SpeedMPH,PrecipitationIn,Events,Conditions,WindDirDegrees,DateUTC
12:14 AM,17.6,8.6,68,29.95,10.0,Calm,Calm,-,N/A,,Overcast,0,2013-03-16 04:14:00
12:35 AM,17.6,8.6,68,29.95,10.0,NNW,3.5,-,N/A,,Overcast,340,2013-03-16 04:35:00
12:54 AM,17.6,8.6,68,29.95,10.0,NNW,4.6,-,N/A,,Overcast,340,2013-03-16 04:54:00
1:14 AM,17.6,8.6,68,29.95,10.0,Calm,Calm,-,N/A,,Overcast,0,2013-03-16 05:14:00
1:54 AM,17.6,6.8,63,29.95,10.0,NNE,4.6,-,N/A,,Overcast,20,2013-03-16 05:54:00
2:15 AM,17.6,6.8,63,29.95,10.0,NE,5.8,-,N/A,,Overcast,50,2013-03-16 06:15:00
2:35 AM,17.6,6.8,63,29.95,10.0,NE,8.1,-,N/A,,Overcast,40,2013-03-16 06:35:00
2:54 AM,17.6,6.8,63,29.95,10.0,NE,9.2,-,N/A,,Overcast,50,2013-03-16 06:54:00
3:15 AM,15.8,6.8,68,29.96,10.0,NE,6.9,-,N/A,,Overcast,40,2013-03-16 07:15:00
3:34 AM,15.8,6.8,68,29.95,10.0,NNE,5.8,-,N/A,,Overcast,20,2013-03-16 07:34:00
3:55 AM,15.8,6.8,68,29.95,10.0,NE,6.9,-,N/A,,Overcast,40,2013-03-16 07:55:00
4:14 AM,15.8,6.8,68,29.95,10.0,NNE,5.8,-,N/A,,Overcast,20,2013-03-16 08:14:00
4:35 AM,15.8,5.0,62,29.95,10.0,NE,6.9,-,N/A,,Overcast,40,2013-03-16 08:35:00
4:55 AM,14.0,5.0,67,29.94,10.0,NE,5.8,-,N/A,,Overcast,40,2013-03-16 08:55:00
5:14 AM,14.0,3.2,62,29.94,10.0,NE,8.1,-,N/A,,Overcast,40,2013-03-16 09:14:00
5:35 AM,12.2,3.2,67,29.94,10.0,NNE,8.1,-,N/A,,Overcast,30,2013-03-16 09:35:00
5:55 AM,12.2,5.0,73,29.94,10.0,NNE,8.1,-,N/A,,Overcast,30,2013-03-16 09:55:00
6:14 AM,12.2,6.8,79,29.94,7.0,NE,6.9,-,N/A,Snow,Light Snow,40,2013-03-16 10:14:00
6:35 AM,12.2,6.8,79,29.94,10.0,NNE,5.8,-,N/A,,Overcast,30,2013-03-16 10:35:00
6:54 AM,12.2,6.8,79,29.95,7.0,NNE,5.8,-,N/A,Snow,Light Snow,30,2013-03-16 10:54:00
7:14 AM,12.2,6.8,79,29.96,7.0,NNE,4.6,-,N/A,Snow,Light Snow,30,2013-03-16 11:14:00
7:35 AM,10.4,6.8,85,29.97,7.0,NNE,5.8,-,N/A,Snow,Light Snow,30,2013-03-16 11:35:00
7:54 AM,10.4,6.8,85,29.97,10.0,NE,4.6,-,N/A,,Overcast,40,2013-03-16 11:54:00
8:15 AM,8.6,5.0,85,29.98,10.0,NNE,4.6,-,N/A,,Overcast,30,2013-03-16 12:15:00
8:34 AM,8.6,3.2,79,29.98,10.0,NE,5.8,-,N/A,,Overcast,40,2013-03-16 12:34:00
8:54 AM,8.6,3.2,79,29.99,10.0,NE,5.8,-,N/A,,Overcast,50,2013-03-16 12:54:00
9:15 AM,10.4,3.2,73,29.99,10.0,ENE,6.9,-,N/A,,Scattered Clouds,60,2013-03-16 13:15:00
9:34 AM,10.4,3.2,73,30.00,10.0,NE,6.9,-,N/A,,Clear,40,2013-03-16 13:34:00
9:54 AM,10.4,3.2,73,30.00,10.0,ENE,6.9,-,N/A,,Clear,60,2013-03-16 13:54:00
10:15 AM,10.4,3.2,73,29.99,10.0,NE,5.8,-,N/A,,Clear,40,2013-03-16 14:15:00
10:34 AM,12.2,3.2,67,29.99,10.0,Calm,Calm,-,N/A,,Clear,0,2013-03-16 14:34:00
10:55 AM,12.2,3.2,67,29.99,10.0,Calm,Calm,-,N/A,,Clear,0,2013-03-16 14:55:00
11:15 AM,14.0,1.4,57,29.99,10.0,Calm,Calm,-,N/A,,Clear,0,2013-03-16 15:15:00
11:34 AM,14.0,1.4,57,29.99,10.0,Calm,Calm,-,N/A,,Clear,0,2013-03-16 15:34:00
11:55 AM,15.8,1.4,53,29.99,10.0,WSW,3.5,-,N/A,,Unknown,240,2013-03-16 15:55:00
12:14 PM,17.6,3.2,53,29.99,10.0,West,9.2,-,N/A,,Unknown,260,2013-03-16 16:14:00
12:34 PM,17.6,3.2,53,29.99,10.0,West,6.9,-,N/A,,Scattered Clouds,260,2013-03-16 16:34:00
12:55 PM,17.6,3.2,53,29.99,10.0,West,4.6,-,N/A,,Clear,270,2013-03-16 16:55:00
1:14 PM,19.4,5.0,54,29.99,10.0,West,9.2,-,N/A,,Scattered Clouds,270,2013-03-16 17:14:00
1:34 PM,19.4,3.2,49,29.99,10.0,WNW,4.6,9.2,N/A,,Scattered Clouds,290,2013-03-16 17:34:00
1:55 PM,19.4,3.2,49,29.98,10.0,West,5.8,-,N/A,,Scattered Clouds,260,2013-03-16 17:55:00
2:14 PM,19.4,3.2,49,29.98,10.0,WSW,6.9,-,N/A,,Mostly Cloudy,250,2013-03-16 18:14:00
2:35 PM,19.4,3.2,49,29.97,10.0,West,3.5,-,N/A,,Mostly Cloudy,270,2013-03-16 18:35:00
2:55 PM,19.4,3.2,49,29.96,10.0,WSW,3.5,-,N/A,,Overcast,250,2013-03-16 18:55:00
3:14 PM,21.2,5.0,50,29.95,10.0,Calm,Calm,-,N/A,,Overcast,0,2013-03-16 19:14:00
3:34 PM,21.2,3.2,46,29.95,10.0,WNW,4.6,-,N/A,,Overcast,290,2013-03-16 19:34:00
3:54 PM,21.2,5.0,50,29.95,10.0,West,4.6,-,N/A,,Overcast,270,2013-03-16 19:54:00
4:15 PM,21.2,6.8,54,29.94,10.0,West,8.1,-,N/A,,Overcast,280,2013-03-16 20:15:00
4:34 PM,21.2,8.6,58,29.94,10.0,West,12.7,-,N/A,,Overcast,270,2013-03-16 20:34:00
4:55 PM,21.2,6.8,54,29.95,10.0,West,11.5,-,N/A,,Overcast,270,2013-03-16 20:55:00
5:14 PM,23.0,6.8,50,29.94,10.0,West,10.4,17.3,N/A,,Overcast,270,2013-03-16 21:14:00
5:34 PM,23.0,6.8,50,29.94,10.0,West,16.1,19.6,N/A,,Overcast,280,2013-03-16 21:34:00
5:55 PM,21.2,6.8,54,29.94,10.0,West,10.4,17.3,N/A,,Overcast,270,2013-03-16 21:55:00
6:14 PM,21.2,6.8,54,29.94,10.0,West,12.7,21.9,N/A,,Overcast,280,2013-03-16 22:14:00
6:34 PM,21.2,6.8,54,29.95,10.0,WNW,13.8,-,N/A,,Overcast,290,2013-03-16 22:34:00
6:55 PM,21.2,8.6,58,29.94,10.0,West,13.8,-,N/A,,Overcast,280,2013-03-16 22:55:00
7:14 PM,21.2,8.6,58,29.94,10.0,West,15.0,-,N/A,,Overcast,270,2013-03-16 23:14:00
7:35 PM,21.2,8.6,58,29.94,10.0,West,11.5,-,N/A,,Overcast,270,2013-03-16 23:35:00
7:55 PM,21.2,8.6,58,29.93,10.0,West,9.2,-,N/A,,Overcast,260,2013-03-16 23:55:00
8:14 PM,21.2,10.4,63,29.93,10.0,West,8.1,-,N/A,,Overcast,270,2013-03-17 00:14:00
8:34 PM,19.4,10.4,68,29.93,10.0,West,6.9,-,N/A,,Overcast,270,2013-03-17 00:34:00
8:54 PM,19.4,10.4,68,29.94,10.0,West,5.8,-,N/A,,Overcast,270,2013-03-17 00:54:00
9:15 PM,19.4,10.4,68,29.94,10.0,West,4.6,-,N/A,,Overcast,260,2013-03-17 01:15:00
9:34 PM,19.4,10.4,68,29.94,10.0,WSW,5.8,-,N/A,,Overcast,240,2013-03-17 01:34:00
9:55 PM,19.4,10.4,68,29.95,10.0,WSW,6.9,-,N/A,,Overcast,250,2013-03-17 01:55:00
10:15 PM,19.4,10.4,68,29.96,10.0,WSW,8.1,-,N/A,,Overcast,250,2013-03-17 02:15:00
10:34 PM,19.4,14.0,80,29.96,4.0,WSW,10.4,-,N/A,Snow,Light Snow,250,2013-03-17 02:34:00
10:55 PM,19.4,14.0,80,29.97,10.0,WSW,11.5,17.3,N/A,,Overcast,240,2013-03-17 02:55:00
11:14 PM,19.4,15.8,86,29.98,3.0,WSW,13.8,20.7,N/A,Snow,Light Snow,250,2013-03-17 03:14:00
11:35 PM,19.4,15.8,86,29.99,0.5,West,16.1,31.1,N/A,Snow,Snow,260,2013-03-17 03:35:00
11:54 PM,19.4,15.8,86,30.00,1.8,West,19.6,-,N/A,Snow,Light Snow,260,2013-03-17 03:54:00